createdAt,value
2022-12-31T00:00:04.475Z,3.60
2022-12-31T00:01:04.411Z,3.80
2022-12-31T00:02:04.546Z,2.80
2022-12-31T00:03:04.518Z,2.90
2022-12-31T00:04:04.413Z,3.50
2022-12-31T00:05:04.453Z,3.10
2022-12-31T00:06:04.353Z,2.80
2022-12-31T00:07:04.331Z,3.30
2022-12-31T00:08:04.347Z,3.30
2022-12-31T00:09:04.314Z,2.50
2022-12-31T00:10:04.485Z,2.50
2022-12-31T00:11:04.314Z,2.60
2022-12-31T00:12:04.296Z,5.60
2022-12-31T00:13:04.275Z,3.40
2022-12-31T00:14:04.281Z,3.50
2022-12-31T00:15:04.254Z,3.00
2022-12-31T00:16:09.970Z,2.30
2022-12-31T00:17:04.331Z,3.10
2022-12-31T00:18:04.220Z,2.80
2022-12-31T00:19:04.241Z,3.00
2022-12-31T00:20:04.200Z,4.40
2022-12-31T00:21:04.208Z,2.20
2022-12-31T00:22:04.225Z,3.10
2022-12-31T00:23:04.175Z,3.80
2022-12-31T00:24:04.167Z,3.50
2022-12-31T00:25:04.148Z,3.60
2022-12-31T00:26:04.136Z,4.20
2022-12-31T00:27:04.139Z,3.10
2022-12-31T00:28:04.162Z,2.40
2022-12-31T00:29:04.107Z,4.00
2022-12-31T00:30:04.942Z,3.30
2022-12-31T00:31:04.189Z,2.30
2022-12-31T00:32:04.073Z,3.60
2022-12-31T00:33:04.076Z,2.60
2022-12-31T00:34:04.190Z,3.10
2022-12-31T00:35:04.034Z,3.40
2022-12-31T00:36:04.034Z,2.90
2022-12-31T00:37:04.056Z,3.60
2022-12-31T00:38:04.031Z,2.50
2022-12-31T00:39:03.997Z,2.80
2022-12-31T00:40:04.241Z,2.60
2022-12-31T00:41:03.983Z,3.50
2022-12-31T00:42:03.985Z,3.90
2022-12-31T00:43:03.966Z,2.20
2022-12-31T00:44:03.947Z,2.00
2022-12-31T00:45:03.933Z,3.80
2022-12-31T00:46:04.209Z,4.10
2022-12-31T00:47:03.917Z,2.40
2022-12-31T00:48:03.909Z,1.60
2022-12-31T00:49:03.898Z,2.90
2022-12-31T00:50:03.874Z,3.40
2022-12-31T00:51:03.863Z,3.20
2022-12-31T00:52:04.039Z,2.40
2022-12-31T00:53:03.871Z,3.00
2022-12-31T00:54:03.849Z,3.10
2022-12-31T00:55:03.826Z,3.90
2022-12-31T00:56:03.825Z,3.50
2022-12-31T00:57:03.798Z,1.90
2022-12-31T00:58:03.845Z,2.50
2022-12-31T00:59:03.781Z,2.80
2022-12-31T01:00:03.789Z,1.70
2022-12-31T01:01:03.852Z,2.90
2022-12-31T01:02:03.879Z,3.50
2022-12-31T01:03:03.826Z,2.40
2022-12-31T01:04:03.772Z,3.80
2022-12-31T01:05:03.739Z,2.70
2022-12-31T01:06:03.715Z,3.20
2022-12-31T01:07:03.711Z,1.50
2022-12-31T01:08:03.711Z,4.30
2022-12-31T01:09:03.677Z,3.70
2022-12-31T01:10:03.721Z,2.90
2022-12-31T01:11:03.673Z,1.60
2022-12-31T01:12:03.646Z,1.80
2022-12-31T01:13:03.636Z,3.40
2022-12-31T01:14:03.634Z,1.60
2022-12-31T01:15:03.614Z,1.70
2022-12-31T01:16:03.762Z,1.90
2022-12-31T01:17:03.602Z,2.30
2022-12-31T01:18:03.599Z,2.80
2022-12-31T01:19:03.577Z,2.00
2022-12-31T01:20:03.561Z,1.30
2022-12-31T01:21:03.547Z,2.40
2022-12-31T01:22:03.574Z,2.30
2022-12-31T01:23:03.527Z,2.20
2022-12-31T01:24:03.532Z,3.90
2022-12-31T01:25:03.501Z,1.80
2022-12-31T01:26:03.501Z,2.40
2022-12-31T01:27:03.483Z,3.10
2022-12-31T01:28:03.532Z,2.30
2022-12-31T01:29:03.465Z,2.10
2022-12-31T01:30:03.460Z,1.90
2022-12-31T01:31:03.484Z,1.70
2022-12-31T01:32:03.436Z,2.70
2022-12-31T01:33:03.424Z,3.40
2022-12-31T01:34:03.454Z,1.90
2022-12-31T01:35:03.400Z,1.50
2022-12-31T01:36:03.407Z,2.00
2022-12-31T01:37:03.376Z,2.80
2022-12-31T01:38:03.378Z,3.30
2022-12-31T01:39:03.370Z,2.50
2022-12-31T01:40:03.479Z,1.00
2022-12-31T01:41:03.354Z,1.90
2022-12-31T01:42:03.323Z,2.70
2022-12-31T01:43:03.323Z,1.60
2022-12-31T01:44:03.310Z,0.90
2022-12-31T01:45:03.296Z,3.20
2022-12-31T01:46:03.396Z,2.70
2022-12-31T01:47:03.267Z,2.70
2022-12-31T01:48:03.271Z,1.20
2022-12-31T01:49:03.260Z,2.30
2022-12-31T01:50:03.250Z,2.20
2022-12-31T01:51:03.227Z,2.20
2022-12-31T01:52:03.263Z,2.40
2022-12-31T01:53:03.209Z,0.80
2022-12-31T01:54:03.203Z,1.70
2022-12-31T01:55:03.209Z,2.30
2022-12-31T01:56:03.192Z,2.70
2022-12-31T01:57:03.170Z,2.00
2022-12-31T01:58:03.199Z,1.80
2022-12-31T01:59:03.169Z,2.30
2022-12-31T02:00:03.136Z,1.60
2022-12-31T02:01:03.160Z,2.10
2022-12-31T02:02:03.272Z,2.10
2022-12-31T02:03:03.118Z,2.60
2022-12-31T02:04:03.236Z,2.40
2022-12-31T02:05:03.095Z,1.70
2022-12-31T02:06:03.078Z,1.60
2022-12-31T02:07:03.079Z,1.40
2022-12-31T02:08:03.068Z,2.70
2022-12-31T02:09:03.047Z,1.70
2022-12-31T02:10:03.070Z,1.30
2022-12-31T02:11:03.027Z,1.10
2022-12-31T02:12:03.009Z,1.10
2022-12-31T02:13:02.997Z,1.30
2022-12-31T02:14:02.999Z,1.70
2022-12-31T02:15:02.997Z,1.10
2022-12-31T02:16:03.048Z,1.50
2022-12-31T02:17:02.969Z,2.40
2022-12-31T02:18:02.949Z,1.20
2022-12-31T02:19:02.940Z,1.10
2022-12-31T02:20:02.951Z,1.20
2022-12-31T02:21:02.931Z,1.30
2022-12-31T02:22:03.060Z,1.30
2022-12-31T02:23:02.891Z,1.50
2022-12-31T02:24:02.895Z,1.50
2022-12-31T02:25:02.955Z,1.80
2022-12-31T02:26:02.869Z,1.60
2022-12-31T02:27:02.849Z,2.30
2022-12-31T02:28:02.980Z,1.00
2022-12-31T02:29:02.840Z,1.40
2022-12-31T02:30:02.815Z,1.60
2022-12-31T02:31:02.861Z,2.40
2022-12-31T02:32:02.804Z,1.20
2022-12-31T02:33:03.046Z,1.90
2022-12-31T02:34:02.908Z,1.50
2022-12-31T02:35:02.766Z,1.40
2022-12-31T02:36:02.760Z,1.30
2022-12-31T02:37:02.767Z,1.10
2022-12-31T02:38:02.726Z,1.70
2022-12-31T02:39:02.730Z,1.70
2022-12-31T02:40:02.885Z,2.40
2022-12-31T02:41:02.703Z,1.10
2022-12-31T02:42:02.690Z,2.10
2022-12-31T02:43:02.711Z,2.10
2022-12-31T02:44:02.673Z,0.90
2022-12-31T02:45:02.676Z,1.80
2022-12-31T02:46:03.006Z,2.30
2022-12-31T02:47:02.666Z,0.80
2022-12-31T02:48:02.625Z,1.40
2022-12-31T02:49:02.637Z,2.20
2022-12-31T02:50:02.633Z,0.80
2022-12-31T02:51:02.624Z,1.60
2022-12-31T02:52:02.770Z,1.30
2022-12-31T02:53:02.613Z,1.30
2022-12-31T02:54:02.571Z,1.10
2022-12-31T02:55:02.634Z,1.10
2022-12-31T02:56:02.555Z,1.70
2022-12-31T02:57:02.533Z,2.80
2022-12-31T02:58:02.665Z,1.20
2022-12-31T02:59:02.521Z,2.00
2022-12-31T03:00:02.495Z,1.10
2022-12-31T03:01:02.741Z,1.30
2022-12-31T03:02:02.556Z,1.60
2022-12-31T03:03:02.511Z,1.90
2022-12-31T03:04:02.668Z,2.70
2022-12-31T03:05:02.484Z,2.00
2022-12-31T03:06:02.497Z,1.40
2022-12-31T03:07:02.521Z,2.40
2022-12-31T03:08:02.466Z,2.10
2022-12-31T03:09:02.494Z,1.90
2022-12-31T03:10:02.540Z,1.30
2022-12-31T03:11:02.555Z,1.20
2022-12-31T03:12:02.376Z,1.90
2022-12-31T03:13:02.396Z,1.00
2022-12-31T03:14:02.362Z,0.90
2022-12-31T03:15:02.339Z,1.90
2022-12-31T03:16:02.396Z,0.90
2022-12-31T03:17:02.326Z,2.00
2022-12-31T03:18:02.323Z,1.70
2022-12-31T03:19:02.298Z,0.70
2022-12-31T03:20:02.306Z,1.70
2022-12-31T03:21:02.301Z,0.80
2022-12-31T03:22:02.391Z,0.50
2022-12-31T03:23:02.261Z,1.70
2022-12-31T03:24:02.278Z,1.60
2022-12-31T03:25:02.283Z,2.20
2022-12-31T03:26:02.220Z,1.30
2022-12-31T03:27:02.229Z,1.20
2022-12-31T03:28:02.262Z,0.80
2022-12-31T03:29:02.208Z,1.80
2022-12-31T03:30:02.185Z,2.40
2022-12-31T03:31:02.223Z,1.60
2022-12-31T03:32:02.162Z,1.40
2022-12-31T03:33:02.154Z,1.50
2022-12-31T03:34:02.284Z,1.30
2022-12-31T03:35:02.129Z,1.60
2022-12-31T03:36:02.124Z,1.50
2022-12-31T03:37:02.115Z,0.90
2022-12-31T03:38:02.100Z,1.90
2022-12-31T03:39:02.087Z,1.10
2022-12-31T03:40:02.250Z,1.60
2022-12-31T03:41:02.061Z,1.20
2022-12-31T03:42:02.059Z,0.50
2022-12-31T03:43:02.045Z,1.00
2022-12-31T03:44:02.036Z,1.00
2022-12-31T03:45:02.035Z,1.50
2022-12-31T03:46:02.129Z,1.20
2022-12-31T03:47:02.028Z,1.20
2022-12-31T03:48:02.001Z,1.50
2022-12-31T03:49:01.988Z,0.60
2022-12-31T03:50:01.967Z,1.20
2022-12-31T03:51:01.967Z,1.10
2022-12-31T03:52:02.201Z,1.40
2022-12-31T03:53:01.959Z,0.50
2022-12-31T03:54:01.929Z,1.10
2022-12-31T03:55:01.930Z,0.80
2022-12-31T03:56:01.914Z,1.30
2022-12-31T03:57:01.898Z,1.00
2022-12-31T03:58:02.016Z,2.20
2022-12-31T03:59:01.879Z,1.70
2022-12-31T04:00:01.867Z,1.20
2022-12-31T04:01:02.005Z,1.40
2022-12-31T04:02:01.998Z,1.10
2022-12-31T04:03:01.871Z,1.00
2022-12-31T04:04:01.944Z,1.00
2022-12-31T04:05:01.858Z,1.30
2022-12-31T04:06:01.803Z,1.80
2022-12-31T04:07:01.839Z,1.20
2022-12-31T04:08:01.791Z,0.60
2022-12-31T04:09:01.780Z,0.80
2022-12-31T04:10:01.801Z,2.10
2022-12-31T04:11:01.761Z,1.10
2022-12-31T04:12:01.738Z,0.70
2022-12-31T04:13:01.738Z,0.90
2022-12-31T04:14:01.738Z,1.20
2022-12-31T04:15:01.715Z,1.10
2022-12-31T04:16:01.763Z,0.70
2022-12-31T04:17:01.699Z,0.60
2022-12-31T04:18:01.677Z,1.80
2022-12-31T04:19:01.704Z,1.30
2022-12-31T04:20:01.662Z,1.70
2022-12-31T04:21:01.650Z,0.80
2022-12-31T04:22:01.774Z,1.40
2022-12-31T04:23:01.638Z,1.50
2022-12-31T04:24:01.611Z,1.20
2022-12-31T04:25:01.610Z,0.80
2022-12-31T04:26:01.610Z,1.70
2022-12-31T04:27:07.298Z,0.90
2022-12-31T04:28:01.702Z,0.80
2022-12-31T04:29:01.567Z,0.80
2022-12-31T04:30:01.549Z,0.80
2022-12-31T04:31:01.542Z,0.70
2022-12-31T04:32:01.687Z,1.30
2022-12-31T04:33:01.527Z,0.70
2022-12-31T04:34:01.634Z,1.00
2022-12-31T04:35:01.507Z,0.70
2022-12-31T04:36:01.491Z,0.90
2022-12-31T04:37:01.472Z,1.40
2022-12-31T04:38:01.470Z,1.20
2022-12-31T04:39:01.467Z,1.60
2022-12-31T04:40:05.880Z,1.00
2022-12-31T04:41:01.451Z,1.30
2022-12-31T04:42:01.420Z,0.80
2022-12-31T04:43:01.416Z,0.80
2022-12-31T04:44:01.424Z,0.80
2022-12-31T04:45:01.394Z,0.50
2022-12-31T04:46:01.426Z,1.30
2022-12-31T04:47:01.383Z,1.10
2022-12-31T04:48:01.352Z,1.60
2022-12-31T04:49:01.352Z,1.60
2022-12-31T04:50:01.356Z,0.70
2022-12-31T04:51:01.328Z,1.30
2022-12-31T04:52:01.334Z,1.60
2022-12-31T04:53:01.322Z,0.70
2022-12-31T04:54:01.294Z,1.50
2022-12-31T04:55:01.285Z,0.60
2022-12-31T04:56:01.274Z,0.70
2022-12-31T04:57:01.271Z,0.70
2022-12-31T04:58:01.283Z,1.60
2022-12-31T04:59:01.244Z,0.90
2022-12-31T05:00:01.230Z,2.40
2022-12-31T05:01:01.397Z,0.70
2022-12-31T05:02:01.411Z,1.60
2022-12-31T05:03:01.244Z,0.90
2022-12-31T05:04:01.233Z,1.20
2022-12-31T05:05:01.228Z,1.90
2022-12-31T05:06:01.178Z,1.50
2022-12-31T05:07:01.155Z,0.60
2022-12-31T05:08:01.198Z,1.20
2022-12-31T05:09:01.138Z,1.40
2022-12-31T05:10:01.161Z,1.20
2022-12-31T05:11:01.189Z,1.50
2022-12-31T05:12:01.120Z,0.70
2022-12-31T05:13:01.095Z,1.50
2022-12-31T05:14:01.157Z,2.20
2022-12-31T05:15:01.090Z,0.90
2022-12-31T05:16:01.209Z,1.20
2022-12-31T05:17:01.347Z,0.60
2022-12-31T05:18:01.031Z,1.10
2022-12-31T05:19:01.069Z,1.10
2022-12-31T05:20:01.068Z,1.20
2022-12-31T05:21:01.019Z,1.60
2022-12-31T05:22:01.129Z,0.50
2022-12-31T05:23:00.993Z,1.80
2022-12-31T05:24:00.982Z,1.00
2022-12-31T05:25:01.012Z,0.50
2022-12-31T05:26:00.951Z,1.40
2022-12-31T05:27:01.005Z,0.90
2022-12-31T05:28:01.066Z,1.30
2022-12-31T05:29:00.927Z,1.50
2022-12-31T05:30:01.001Z,0.70
2022-12-31T05:31:00.969Z,1.00
2022-12-31T05:32:00.885Z,0.80
2022-12-31T05:33:00.931Z,1.20
2022-12-31T05:34:00.916Z,1.00
2022-12-31T05:35:00.873Z,0.80
2022-12-31T05:36:00.908Z,1.40
2022-12-31T05:37:00.844Z,0.90
2022-12-31T05:38:00.836Z,2.00
2022-12-31T05:39:00.833Z,2.10
2022-12-31T05:40:00.944Z,0.70
2022-12-31T05:41:00.814Z,1.30
2022-12-31T05:42:00.784Z,1.40
2022-12-31T05:43:00.795Z,0.90
2022-12-31T05:44:00.764Z,0.80
2022-12-31T05:45:00.760Z,0.80
2022-12-31T05:46:00.978Z,1.20
2022-12-31T05:47:00.735Z,1.10
2022-12-31T05:48:00.760Z,0.50
2022-12-31T05:49:00.714Z,1.60
2022-12-31T05:50:00.718Z,0.60
2022-12-31T05:51:00.711Z,1.10
2022-12-31T05:52:00.810Z,2.10
2022-12-31T05:53:00.684Z,0.80
2022-12-31T05:54:00.652Z,2.00
2022-12-31T05:55:00.652Z,1.40
2022-12-31T05:56:00.654Z,1.90
2022-12-31T05:57:00.636Z,1.10
2022-12-31T05:58:00.718Z,1.10
2022-12-31T05:59:00.622Z,1.20
2022-12-31T06:00:00.631Z,1.40
2022-12-31T06:01:00.635Z,1.50
2022-12-31T06:02:00.601Z,0.50
2022-12-31T06:03:00.678Z,1.00
2022-12-31T06:04:00.873Z,1.70
2022-12-31T06:05:00.553Z,0.70
2022-12-31T06:06:00.529Z,0.80
2022-12-31T06:07:00.554Z,0.70
2022-12-31T06:08:00.531Z,0.80
2022-12-31T06:09:00.506Z,1.80
2022-12-31T06:10:00.612Z,0.80
2022-12-31T06:11:00.505Z,0.60
2022-12-31T06:12:00.485Z,2.20
2022-12-31T06:13:00.463Z,0.70
2022-12-31T06:14:00.461Z,1.00
2022-12-31T06:15:00.436Z,2.00
2022-12-31T06:16:00.584Z,0.70
2022-12-31T06:17:00.423Z,0.80
2022-12-31T06:18:00.401Z,1.10
2022-12-31T06:19:00.395Z,1.10
2022-12-31T06:20:01.258Z,1.20
2022-12-31T06:21:00.386Z,0.90
2022-12-31T06:22:00.395Z,1.30
2022-12-31T06:23:00.393Z,1.60
2022-12-31T06:24:00.336Z,1.50
2022-12-31T06:25:00.329Z,1.00
2022-12-31T06:26:00.330Z,1.10
2022-12-31T06:27:00.309Z,0.50
2022-12-31T06:28:00.435Z,1.00
2022-12-31T06:29:00.372Z,0.80
2022-12-31T06:30:00.271Z,1.20
2022-12-31T06:31:00.360Z,0.90
2022-12-31T06:32:00.345Z,1.10
2022-12-31T06:33:00.358Z,0.90
2022-12-31T06:34:00.258Z,0.60
2022-12-31T06:35:00.292Z,0.50
2022-12-31T06:36:00.225Z,1.70
2022-12-31T06:37:00.212Z,2.30
2022-12-31T06:38:00.203Z,1.90
2022-12-31T06:39:00.186Z,0.90
2022-12-31T06:40:00.330Z,0.60
2022-12-31T06:41:00.160Z,1.30
2022-12-31T06:42:00.162Z,1.00
2022-12-31T06:43:00.632Z,1.10
2022-12-31T06:44:00.134Z,1.20
2022-12-31T06:45:00.145Z,1.70
2022-12-31T06:46:00.185Z,1.00
2022-12-31T06:47:00.110Z,1.20
2022-12-31T06:48:00.120Z,0.60
2022-12-31T06:49:00.145Z,1.70
2022-12-31T06:50:00.119Z,0.50
2022-12-31T06:51:00.082Z,1.10
2022-12-31T06:52:00.174Z,2.70
2022-12-31T06:53:00.040Z,0.60
2022-12-31T06:54:00.037Z,0.90
2022-12-31T06:55:00.010Z,2.00
2022-12-31T06:56:00.008Z,0.90
2022-12-31T06:56:59.985Z,1.90
2022-12-31T06:58:00.129Z,1.20
2022-12-31T06:58:59.966Z,1.20
2022-12-31T06:59:59.964Z,1.00
2022-12-31T07:00:59.976Z,2.10
2022-12-31T07:02:00.105Z,1.20
2022-12-31T07:02:59.948Z,1.30
2022-12-31T07:03:59.965Z,1.00
2022-12-31T07:04:59.920Z,0.80
2022-12-31T07:05:59.902Z,1.50
2022-12-31T07:06:59.892Z,1.00
2022-12-31T07:07:59.875Z,0.60
2022-12-31T07:08:59.855Z,0.70
2022-12-31T07:09:59.890Z,1.40
2022-12-31T07:10:59.879Z,1.50
2022-12-31T07:11:59.845Z,1.70
2022-12-31T07:12:59.823Z,1.50
2022-12-31T07:13:59.824Z,1.50
2022-12-31T07:14:59.800Z,1.40
2022-12-31T07:15:59.989Z,1.30
2022-12-31T07:16:59.791Z,1.50
2022-12-31T07:17:59.763Z,1.40
2022-12-31T07:18:59.756Z,1.40
2022-12-31T07:19:59.755Z,1.40
2022-12-31T07:20:59.749Z,1.50
2022-12-31T07:21:59.769Z,1.30
2022-12-31T07:22:59.705Z,1.20
2022-12-31T07:23:59.715Z,1.40
2022-12-31T07:24:59.684Z,1.50
2022-12-31T07:25:59.680Z,1.50
2022-12-31T07:26:59.675Z,0.80
2022-12-31T07:27:59.709Z,0.70
2022-12-31T07:28:59.645Z,1.20
2022-12-31T07:29:59.657Z,0.90
2022-12-31T07:30:59.688Z,1.00
2022-12-31T07:31:59.624Z,2.30
2022-12-31T07:32:59.616Z,1.90
2022-12-31T07:33:59.634Z,1.00
2022-12-31T07:34:59.584Z,1.70
2022-12-31T07:35:59.596Z,1.90
2022-12-31T07:36:59.560Z,1.50
2022-12-31T07:37:59.560Z,1.60
2022-12-31T07:38:59.553Z,1.10
2022-12-31T07:39:59.665Z,2.40
2022-12-31T07:41:02.698Z,1.70
2022-12-31T07:41:59.548Z,0.90
2022-12-31T07:42:59.507Z,2.00
2022-12-31T07:43:59.500Z,1.20
2022-12-31T07:44:59.839Z,0.80
2022-12-31T07:45:59.601Z,2.00
2022-12-31T07:46:59.570Z,2.60
2022-12-31T07:48:02.798Z,1.80
2022-12-31T07:48:59.456Z,1.90
2022-12-31T07:49:59.378Z,1.30
2022-12-31T07:50:59.435Z,1.70
2022-12-31T07:51:59.544Z,0.70
2022-12-31T07:52:59.395Z,1.30
2022-12-31T07:53:59.407Z,2.40
2022-12-31T07:54:59.331Z,0.60
2022-12-31T07:55:59.313Z,0.90
2022-12-31T07:56:59.334Z,1.00
2022-12-31T07:57:59.474Z,1.20
2022-12-31T07:59:01.633Z,2.10
2022-12-31T07:59:59.328Z,0.60
2022-12-31T08:00:59.467Z,1.20
2022-12-31T08:01:59.414Z,2.10
2022-12-31T08:02:59.334Z,1.00
2022-12-31T08:03:59.449Z,1.10
2022-12-31T08:04:59.267Z,1.00
2022-12-31T08:05:59.226Z,1.40
2022-12-31T08:06:59.192Z,0.50
2022-12-31T08:07:59.189Z,1.00
2022-12-31T08:08:59.181Z,0.90
2022-12-31T08:09:59.474Z,1.00
2022-12-31T08:10:59.245Z,2.40
2022-12-31T08:11:59.229Z,2.10
2022-12-31T08:12:59.181Z,1.50
2022-12-31T08:13:59.191Z,0.70
2022-12-31T08:14:59.162Z,1.20
2022-12-31T08:15:59.334Z,1.30
2022-12-31T08:16:59.151Z,1.80
2022-12-31T08:17:59.144Z,1.70
2022-12-31T08:18:59.131Z,1.10
2022-12-31T08:19:59.122Z,0.60
2022-12-31T08:20:59.075Z,1.90
2022-12-31T08:21:59.212Z,1.20
2022-12-31T08:22:59.080Z,1.30
2022-12-31T08:23:59.048Z,1.70
2022-12-31T08:24:59.053Z,1.80
2022-12-31T08:25:59.019Z,1.60
2022-12-31T08:26:58.989Z,2.40
2022-12-31T08:27:59.096Z,0.70
2022-12-31T08:28:58.980Z,1.20
2022-12-31T08:29:58.963Z,0.50
2022-12-31T08:30:58.991Z,1.50
2022-12-31T08:31:59.027Z,0.70
2022-12-31T08:32:59.009Z,1.80
2022-12-31T08:34:03.830Z,1.20
2022-12-31T08:34:58.959Z,1.30
2022-12-31T08:35:58.925Z,1.20
2022-12-31T08:36:58.875Z,1.00
2022-12-31T08:37:58.878Z,0.60
2022-12-31T08:38:58.868Z,1.40
2022-12-31T08:39:59.020Z,1.60
2022-12-31T08:40:58.833Z,1.10
2022-12-31T08:41:58.832Z,1.50
2022-12-31T08:42:58.871Z,1.10
2022-12-31T08:43:58.817Z,2.40
2022-12-31T08:44:58.846Z,1.70
2022-12-31T08:45:58.882Z,1.40
2022-12-31T08:46:58.779Z,1.10
2022-12-31T08:48:00.176Z,1.10
2022-12-31T08:48:58.743Z,1.80
2022-12-31T08:49:58.742Z,1.20
2022-12-31T08:50:58.736Z,2.80
2022-12-31T08:51:58.859Z,1.40
2022-12-31T08:52:58.730Z,1.10
2022-12-31T08:53:58.718Z,1.00
2022-12-31T08:54:58.682Z,1.40
2022-12-31T08:55:58.681Z,1.00
2022-12-31T08:56:58.688Z,1.20
2022-12-31T08:57:58.876Z,1.00
2022-12-31T08:58:58.643Z,1.40
2022-12-31T08:59:58.631Z,0.50
2022-12-31T09:00:58.703Z,0.70
2022-12-31T09:01:58.678Z,2.20
2022-12-31T09:02:58.626Z,1.50
2022-12-31T09:03:58.816Z,0.90
2022-12-31T09:04:58.587Z,0.90
2022-12-31T09:05:58.572Z,0.80
2022-12-31T09:06:58.587Z,1.30
2022-12-31T09:07:58.552Z,1.00
2022-12-31T09:08:58.556Z,1.30
2022-12-31T09:09:58.641Z,1.10
2022-12-31T09:10:58.514Z,1.90
2022-12-31T09:11:58.501Z,0.80
2022-12-31T09:12:58.496Z,2.20
2022-12-31T09:13:58.495Z,2.30
2022-12-31T09:14:58.473Z,1.10
2022-12-31T09:15:58.704Z,1.00
2022-12-31T09:16:58.489Z,3.70
2022-12-31T09:17:58.453Z,0.80
2022-12-31T09:18:58.433Z,0.60
2022-12-31T09:19:58.433Z,1.00
2022-12-31T09:20:58.410Z,0.80
2022-12-31T09:21:58.591Z,0.80
2022-12-31T09:22:58.387Z,1.30
2022-12-31T09:23:58.387Z,1.30
2022-12-31T09:24:58.365Z,2.20
2022-12-31T09:25:58.384Z,0.70
2022-12-31T09:26:58.379Z,0.80
2022-12-31T09:27:58.387Z,1.70
2022-12-31T09:28:58.336Z,1.80
2022-12-31T09:29:58.336Z,1.80
2022-12-31T09:30:58.305Z,0.90
2022-12-31T09:31:58.363Z,0.90
2022-12-31T09:33:01.067Z,1.10
2022-12-31T09:33:58.415Z,1.10
2022-12-31T09:34:58.271Z,1.40
2022-12-31T09:35:58.280Z,0.90
2022-12-31T09:36:58.291Z,2.10
2022-12-31T09:45:31.670Z,9.90
2022-12-31T09:46:32.365Z,9.00
2022-12-31T09:47:32.406Z,10.20
2022-12-31T09:48:32.377Z,20.50
2022-12-31T09:49:33.610Z,7.70
2022-12-31T09:50:32.614Z,8.10
2022-12-31T09:51:32.431Z,8.90
2022-12-31T11:09:02.381Z,13.20
2022-12-31T11:10:03.017Z,11.70
2022-12-31T11:11:05.270Z,10.20
2022-12-31T11:12:03.034Z,8.00
2022-12-31T11:13:02.999Z,11.70
2022-12-31T11:14:03.053Z,8.90
2022-12-31T11:15:02.939Z,8.00
2022-12-31T11:16:03.047Z,9.60
2022-12-31T11:17:02.917Z,6.10
2022-12-31T11:18:02.925Z,8.10
2022-12-31T11:19:02.857Z,10.80
2022-12-31T11:20:02.883Z,9.70
2022-12-31T11:21:03.409Z,8.30
2022-12-31T11:22:02.808Z,9.40
2022-12-31T11:23:02.773Z,7.80
2022-12-31T11:24:02.780Z,9.20
2022-12-31T11:25:02.715Z,7.20
2022-12-31T11:26:02.776Z,6.60
2022-12-31T11:27:02.679Z,8.10
2022-12-31T11:28:02.640Z,9.10
2022-12-31T11:29:02.622Z,8.60
2022-12-31T11:30:02.611Z,12.80
2022-12-31T11:31:05.468Z,9.80
2022-12-31T11:32:02.741Z,6.90
2022-12-31T11:33:02.557Z,10.60
2022-12-31T11:34:02.489Z,7.50
2022-12-31T11:35:02.458Z,7.70
2022-12-31T11:36:02.453Z,5.20
2022-12-31T11:37:02.404Z,9.30
2022-12-31T11:38:02.478Z,7.30
2022-12-31T11:39:02.379Z,7.40
2022-12-31T11:40:02.330Z,8.10
2022-12-31T11:41:02.297Z,7.10
2022-12-31T11:42:02.267Z,7.80
2022-12-31T11:43:02.284Z,8.50
2022-12-31T11:44:02.368Z,8.00
2022-12-31T11:45:02.184Z,8.30
2022-12-31T11:46:02.183Z,7.40
2022-12-31T11:47:02.116Z,9.90
2022-12-31T11:48:29.670Z,7.70
2022-12-31T11:49:02.091Z,7.80
2022-12-31T11:50:02.227Z,8.10
2022-12-31T11:51:02.015Z,6.00
2022-12-31T11:52:02.003Z,8.40
2022-12-31T11:53:01.991Z,8.40
2022-12-31T11:54:02.038Z,8.80
2022-12-31T11:55:01.945Z,7.60
2022-12-31T11:56:01.943Z,7.10
2022-12-31T11:57:01.893Z,8.10
2022-12-31T11:58:01.884Z,5.70
2022-12-31T11:59:06.267Z,10.20
2022-12-31T12:00:01.783Z,12.70
2022-12-31T12:01:01.787Z,6.30
2022-12-31T12:02:01.794Z,7.60
2022-12-31T12:03:01.815Z,7.80
2022-12-31T12:04:01.798Z,10.00
2022-12-31T12:05:06.501Z,8.50
2022-12-31T12:06:01.660Z,6.80
2022-12-31T12:07:01.577Z,7.40
2022-12-31T12:08:01.621Z,8.10
2022-12-31T12:09:01.561Z,8.60
2022-12-31T12:10:01.495Z,9.30
2022-12-31T12:11:01.488Z,9.80
2022-12-31T12:12:01.463Z,6.50
2022-12-31T12:13:01.412Z,7.00
2022-12-31T12:14:01.666Z,10.80
2022-12-31T12:15:01.503Z,10.10
2022-12-31T12:16:01.336Z,7.30
2022-12-31T12:17:05.269Z,7.70
2022-12-31T12:18:01.247Z,7.40
2022-12-31T12:19:01.292Z,9.40
2022-12-31T12:20:01.314Z,9.40
2022-12-31T12:21:01.151Z,8.90
2022-12-31T12:22:01.132Z,11.10
2022-12-31T12:23:01.098Z,6.90
2022-12-31T12:24:01.046Z,8.90
2022-12-31T12:25:01.046Z,7.50
2022-12-31T12:26:01.068Z,8.70
2022-12-31T12:27:00.999Z,8.60
2022-12-31T12:28:00.961Z,9.00
2022-12-31T12:29:00.931Z,6.60
2022-12-31T12:30:00.913Z,6.10
2022-12-31T12:31:01.748Z,5.60
2022-12-31T12:32:01.000Z,10.30
2022-12-31T12:33:00.850Z,10.70
2022-12-31T12:34:00.829Z,8.40
2022-12-31T12:35:00.783Z,7.30
2022-12-31T12:36:00.756Z,6.90
2022-12-31T12:37:00.764Z,8.70
2022-12-31T12:38:00.756Z,6.30
2022-12-31T12:39:00.737Z,6.40
2022-12-31T12:40:01.037Z,8.10
2022-12-31T12:41:00.647Z,7.90
2022-12-31T12:42:00.622Z,6.90
2022-12-31T12:43:00.880Z,8.10
2022-12-31T12:44:00.710Z,7.10
2022-12-31T12:45:00.555Z,11.20
2022-12-31T12:46:00.527Z,6.70
2022-12-31T12:47:00.525Z,11.10
2022-12-31T12:48:00.493Z,7.00
2022-12-31T12:49:00.452Z,6.90
2022-12-31T12:50:00.593Z,6.70
2022-12-31T12:51:00.459Z,9.00
2022-12-31T12:52:00.388Z,7.10
2022-12-31T12:53:00.361Z,12.00
2022-12-31T12:54:00.368Z,7.20
2022-12-31T12:55:00.351Z,6.90
2022-12-31T12:56:00.352Z,7.40
2022-12-31T12:57:00.283Z,4.30
2022-12-31T12:58:00.260Z,6.60
2022-12-31T12:59:00.231Z,6.60
2022-12-31T13:00:00.192Z,8.20
2022-12-31T13:01:00.362Z,8.80
2022-12-31T13:02:00.405Z,5.50
2022-12-31T13:03:00.350Z,11.30
2022-12-31T13:04:33.134Z,9.30
2022-12-31T13:05:00.150Z,7.60
2022-12-31T13:06:00.081Z,5.50
2022-12-31T13:07:00.106Z,4.80
2022-12-31T13:08:00.155Z,4.60
2022-12-31T13:09:00.002Z,5.30
2022-12-31T13:09:59.975Z,5.70
2022-12-31T13:10:59.965Z,8.60
2022-12-31T13:12:05.449Z,7.80
2022-12-31T13:14:00.003Z,6.50
2022-12-31T13:14:59.854Z,7.60
2022-12-31T13:15:59.902Z,4.50
2022-12-31T13:16:59.786Z,6.70
2022-12-31T13:18:01.955Z,8.00
2022-12-31T13:18:59.725Z,7.10
2022-12-31T13:19:59.705Z,5.40
2022-12-31T13:20:59.669Z,5.50
2022-12-31T13:21:59.637Z,5.80
2022-12-31T13:22:59.609Z,8.70
2022-12-31T13:23:59.586Z,4.70
2022-12-31T13:24:59.575Z,4.30
2022-12-31T13:25:59.567Z,6.50
2022-12-31T13:26:59.492Z,4.10
2022-12-31T13:27:59.474Z,8.40
2022-12-31T13:28:59.453Z,6.60
2022-12-31T13:29:59.415Z,6.90
2022-12-31T13:31:06.269Z,5.50
2022-12-31T13:31:59.515Z,4.50
2022-12-31T13:32:59.308Z,6.90
2022-12-31T13:33:59.301Z,4.30
2022-12-31T13:34:59.267Z,4.80
2022-12-31T13:35:59.238Z,5.50
2022-12-31T13:36:59.204Z,5.50
2022-12-31T13:38:05.133Z,9.60
2022-12-31T13:38:59.160Z,7.30
2022-12-31T13:39:59.105Z,5.20
2022-12-31T13:40:59.073Z,4.00
2022-12-31T13:41:59.050Z,7.60
2022-12-31T13:42:59.078Z,5.90
2022-12-31T13:43:59.246Z,7.10
2022-12-31T13:44:58.979Z,5.50
2022-12-31T13:45:59.000Z,8.30
2022-12-31T13:46:58.959Z,4.90
2022-12-31T13:47:58.911Z,4.60
2022-12-31T13:48:58.885Z,4.80
2022-12-31T13:49:59.071Z,6.20
2022-12-31T13:50:58.844Z,6.00
2022-12-31T13:51:58.821Z,7.00
2022-12-31T13:52:58.793Z,14.20
2022-12-31T13:53:58.755Z,6.10
2022-12-31T13:54:58.760Z,4.70
2022-12-31T13:55:58.813Z,6.80
2022-12-31T13:56:58.696Z,7.00
2022-12-31T13:57:58.664Z,7.00
2022-12-31T13:58:58.660Z,4.80
2022-12-31T13:59:58.620Z,4.80
2022-12-31T14:00:58.994Z,6.40
2022-12-31T14:01:58.902Z,5.30
2022-12-31T14:02:58.685Z,5.10
2022-12-31T14:03:58.557Z,4.60
2022-12-31T14:44:17.213Z,7.40
2022-12-31T14:45:15.298Z,9.40
2022-12-31T14:46:15.296Z,15.40
2022-12-31T14:47:15.247Z,16.70
2022-12-31T15:34:34.104Z,4.30
2022-12-31T15:35:34.898Z,6.50
2022-12-31T15:36:34.915Z,8.30
2022-12-31T15:37:34.886Z,16.00
2022-12-31T15:38:34.871Z,14.10
2022-12-31T15:39:34.892Z,14.20
2022-12-31T15:40:34.845Z,11.30
2022-12-31T15:41:34.841Z,11.50
2022-12-31T15:42:39.832Z,7.20
2022-12-31T15:43:34.823Z,4.00
2022-12-31T15:44:34.813Z,7.30
2022-12-31T15:45:34.882Z,3.80
2022-12-31T15:46:34.833Z,5.50
2022-12-31T15:47:34.783Z,2.20
2022-12-31T15:48:34.813Z,2.90
2022-12-31T15:49:34.755Z,2.80
2022-12-31T15:50:34.764Z,3.90
2022-12-31T15:51:34.891Z,2.40
2022-12-31T15:52:34.733Z,5.50
2022-12-31T15:53:34.720Z,3.10
2022-12-31T15:54:34.723Z,3.40
2022-12-31T15:55:34.697Z,4.40
2022-12-31T15:56:34.708Z,3.90
2022-12-31T15:57:34.715Z,3.30
2022-12-31T15:58:34.675Z,2.50
2022-12-31T15:59:34.666Z,3.70
2022-12-31T16:00:34.656Z,2.40
2022-12-31T16:01:34.755Z,3.60
2022-12-31T16:02:34.729Z,3.20
2022-12-31T16:03:34.826Z,2.80
2022-12-31T16:04:34.604Z,3.00
2022-12-31T16:05:34.613Z,2.40
2022-12-31T16:06:34.611Z,2.40
2022-12-31T16:07:34.582Z,3.70